Time;durP1;ratioP1;P1;durP2;ratioP2;P2;SDS_P1;SDS_P2;PMS_P1;PMS_P2;Temp;Humidity;BMP_temperature;BMP_pressure;BME280_temperature;BME280_humidity;BME280_pressure;Samples;Min_cycle;Max_cycle;Signal;HPM_P1;HPM_P2
2023/05/08 00:00:03;;;;;;;12.68;8.60;;;10.80;99.90;;;;;;4988612;28;20468;-70
2023/05/08 00:02:30;;;;;;;11.32;8.50;;;10.80;99.90;;;;;;4973367;28;20102;-68
2023/05/08 00:04:55;;;;;;;12.75;8.75;;;10.70;99.90;;;;;;4990712;28;20046;-69
2023/05/08 00:07:21;;;;;;;12.35;8.60;;;10.70;99.90;;;;;;4973393;28;20034;-68
2023/05/08 00:09:47;;;;;;;12.05;8.77;;;10.70;99.90;;;;;;4991511;28;20373;-69
2023/05/08 00:12:12;;;;;;;13.30;8.43;;;10.60;99.90;;;;;;4989141;28;20077;-72
2023/05/08 00:14:38;;;;;;;12.15;8.60;;;10.70;99.90;;;;;;4991053;28;20033;-72
2023/05/08 00:17:04;;;;;;;13.43;8.50;;;10.60;99.90;;;;;;4972838;28;20026;-70
2023/05/08 00:19:29;;;;;;;12.25;8.48;;;10.60;99.90;;;;;;4990917;28;20026;-71
2023/05/08 00:21:55;;;;;;;11.52;8.32;;;10.50;99.90;;;;;;4971922;28;20444;-68
2023/05/08 00:24:21;;;;;;;13.52;8.25;;;10.50;99.90;;;;;;4991367;28;20085;-69
2023/05/08 00:26:46;;;;;;;12.07;8.48;;;10.50;99.90;;;;;;4971615;28;20027;-70
2023/05/08 00:29:12;;;;;;;13.98;8.07;;;10.50;99.90;;;;;;4990810;28;20042;-71
2023/05/08 00:31:37;;;;;;;10.27;7.93;;;10.50;99.90;;;;;;4990254;28;20030;-69
2023/05/08 00:34:03;;;;;;;13.57;8.68;;;10.50;99.90;;;;;;4971860;28;20023;-69
2023/05/08 00:36:28;;;;;;;11.20;8.30;;;10.50;99.90;;;;;;4989592;28;20085;-71
2023/05/08 00:38:54;;;;;;;10.02;8.27;;;10.50;99.90;;;;;;4987735;28;20048;-71
2023/05/08 00:41:20;;;;;;;11.57;8.50;;;10.40;99.90;;;;;;4988410;28;20030;-71
2023/05/08 00:43:45;;;;;;;13.13;9.20;;;10.40;99.90;;;;;;4972530;28;20049;-69
2023/05/08 00:46:11;;;;;;;12.60;8.43;;;10.40;99.90;;;;;;4989472;28;20411;-71
2023/05/08 00:48:38;;;;;;;12.93;8.30;;;10.40;99.90;;;;;;4991624;28;20514;-69
2023/05/08 00:51:07;;;;;;;12.73;8.65;;;10.40;99.90;;;;;;4988250;28;20057;-71
2023/05/08 00:53:36;;;;;;;11.63;9.07;;;10.40;99.90;;;;;;4972568;28;20041;-72
2023/05/08 00:56:02;;;;;;;12.88;9.13;;;10.40;99.90;;;;;;4972943;28;20053;-69
2023/05/08 00:58:30;;;;;;;13.30;9.48;;;10.30;99.90;;;;;;4972756;28;20108;-70
2023/05/08 01:00:57;;;;;;;14.30;8.70;;;10.30;99.90;;;;;;4990626;28;20035;-70
2023/05/08 01:03:22;;;;;;;12.63;8.57;;;10.30;99.90;;;;;;4970863;28;20037;-70
2023/05/08 01:05:48;;;;;;;14.95;8.95;;;10.30;99.90;;;;;;4988995;28;20026;-70
2023/05/08 01:08:14;;;;;;;15.15;9.20;;;10.30;99.90;;;;;;4988130;28;20023;-74
2023/05/08 01:11:22;;;;;;;11.52;8.23;;;10.30;99.90;;;;;;4973454;28;20033;-69
2023/05/08 01:14:06;;;;;;;14.65;8.30;;;10.20;99.90;;;;;;4990017;28;20054;-69
2023/05/08 01:16:46;;;;;;;11.70;8.48;;;10.10;99.90;;;;;;4990355;28;20035;-71
2023/05/08 01:19:31;;;;;;;12.48;8.88;;;10.10;99.90;;;;;;4988880;28;20030;-69
2023/05/08 01:22:19;;;;;;;12.20;8.63;;;10.10;99.90;;;;;;4988977;28;20435;-70
2023/05/08 01:25:27;;;;;;;15.63;9.43;;;10.10;99.90;;;;;;4988853;28;20178;-72
2023/05/08 01:28:05;;;;;;;12.15;9.23;;;10.10;99.90;;;;;;4970326;28;20113;-69
2023/05/08 01:30:50;;;;;;;13.23;9.00;;;10.10;99.90;;;;;;4988145;28;20020;-69
2023/05/08 01:33:31;;;;;;;14.18;9.35;;;10.10;99.90;;;;;;4972453;28;20042;-69
2023/05/08 01:36:05;;;;;;;13.68;9.70;;;10.10;99.90;;;;;;4989512;28;20049;-71
2023/05/08 01:38:52;;;;;;;13.77;9.68;;;10.10;99.90;;;;;;4990012;28;20464;-70
2023/05/08 01:41:27;;;;;;;11.85;9.13;;;10.00;99.90;;;;;;4988468;28;20033;-70
2023/05/08 01:44:04;;;;;;;14.57;10.30;;;10.00;99.90;;;;;;4989158;28;20502;-69
2023/05/08 01:46:32;;;;;;;13.60;9.73;;;10.00;99.90;;;;;;4987942;28;20035;-67
2023/05/08 01:49:02;;;;;;;14.88;10.20;;;10.00;99.90;;;;;;4989867;28;20587;-68
2023/05/08 01:51:35;;;;;;;13.20;9.13;;;9.90;99.90;;;;;;4987505;28;20566;-68
2023/05/08 01:54:06;;;;;;;13.52;9.48;;;9.90;99.90;;;;;;4989844;28;20470;-69
2023/05/08 01:56:34;;;;;;;12.73;9.50;;;9.90;99.90;;;;;;4970768;28;20049;-70
2023/05/08 01:59:01;;;;;;;15.82;10.48;;;9.80;99.90;;;;;;4971281;28;20026;-70
2023/05/08 02:01:28;;;;;;;16.10;10.02;;;9.80;99.90;;;;;;4987575;28;20030;-72
2023/05/08 02:03:56;;;;;;;14.77;9.82;;;9.70;99.90;;;;;;4990122;28;20039;-69
2023/05/08 02:06:23;;;;;;;14.57;10.10;;;9.70;99.90;;;;;;4971631;28;20027;-70
2023/05/08 02:08:51;;;;;;;14.68;10.40;;;9.70;99.90;;;;;;4971877;28;20034;-69
2023/05/08 02:11:18;;;;;;;13.98;10.60;;;9.70;99.90;;;;;;4987127;28;20029;-71
2023/05/08 02:13:46;;;;;;;14.82;10.50;;;9.60;99.90;;;;;;4987913;28;20054;-73
2023/05/08 02:16:13;;;;;;;14.27;10.38;;;9.60;99.90;;;;;;4989952;28;20072;-69
2023/05/08 02:18:45;;;;;;;13.32;10.07;;;9.60;99.90;;;;;;4989993;28;20046;-71
2023/05/08 02:21:13;;;;;;;15.00;10.68;;;9.60;99.90;;;;;;4989492;28;20054;-72
2023/05/08 02:23:40;;;;;;;16.52;10.57;;;9.50;99.90;;;;;;4971976;28;20050;-70
2023/05/08 02:26:07;;;;;;;15.75;10.93;;;9.50;99.90;;;;;;4974133;28;20059;-71
2023/05/08 02:28:34;;;;;;;14.18;10.23;;;9.50;99.90;;;;;;4990896;28;20038;-71
2023/05/08 02:31:01;;;;;;;15.82;10.75;;;9.40;99.90;;;;;;4991316;28;20368;-70
2023/05/08 02:33:29;;;;;;;14.50;10.38;;;9.40;99.90;;;;;;4991861;28;20030;-69
2023/05/08 02:35:56;;;;;;;14.95;11.25;;;9.40;99.90;;;;;;4974478;28;20090;-71
2023/05/08 02:38:24;;;;;;;15.68;10.70;;;9.30;99.90;;;;;;4991340;28;20113;-70
2023/05/08 02:40:54;;;;;;;15.05;10.40;;;9.30;99.90;;;;;;4991108;28;20031;-70
2023/05/08 02:43:19;;;;;;;16.00;11.05;;;9.30;99.90;;;;;;4991795;28;20091;-69
2023/05/08 02:45:51;;;;;;;15.98;11.10;;;9.30;99.90;;;;;;4990912;28;20062;-69
2023/05/08 02:48:24;;;;;;;14.85;11.00;;;9.30;99.90;;;;;;4991078;28;20121;-70
2023/05/08 02:51:14;;;;;;;20.48;11.63;;;9.30;99.90;;;;;;4990770;28;20034;-71
2023/05/08 02:54:18;;;;;;;14.82;11.05;;;9.20;99.90;;;;;;4991612;28;20037;-70
2023/05/08 02:57:25;;;;;;;15.43;10.55;;;9.20;99.90;;;;;;4991685;28;20023;-71
2023/05/08 02:59:59;;;;;;;16.42;11.43;;;9.20;99.90;;;;;;4975957;28;20117;-69
2023/05/08 03:02:33;;;;;;;18.05;11.63;;;9.20;99.90;;;;;;4977303;28;20038;-70
2023/05/08 03:05:04;;;;;;;19.45;12.18;;;9.20;99.90;;;;;;4993036;28;20039;-70
2023/05/08 03:07:33;;;;;;;17.60;11.35;;;9.10;99.90;;;;;;4994363;28;20034;-71
2023/05/08 03:10:04;;;;;;;16.70;12.18;;;9.10;99.90;;;;;;4994437;28;20114;-71
2023/05/08 03:12:33;;;;;;;16.83;11.70;;;9.10;99.90;;;;;;4977017;28;20640;-71
2023/05/08 03:15:25;;;;;;;16.50;11.27;;;9.10;99.90;;;;;;4994667;28;20036;-70
2023/05/08 03:18:02;;;;;;;16.42;11.52;;;9.10;99.90;;;;;;4994411;28;20026;-69
2023/05/08 03:20:36;;;;;;;17.65;12.20;;;9.10;99.90;;;;;;4994357;28;20046;-70
2023/05/08 03:23:03;;;;;;;17.45;12.05;;;9.10;99.90;;;;;;4977225;28;20030;-71
2023/05/08 03:25:31;;;;;;;18.58;11.80;;;9.00;99.90;;;;;;4993756;28;20043;-70
2023/05/08 03:27:58;;;;;;;17.98;12.95;;;9.00;99.90;;;;;;4976532;28;20867;-71
2023/05/08 03:30:25;;;;;;;18.33;12.18;;;9.00;99.90;;;;;;4994333;28;20037;-69
2023/05/08 03:32:53;;;;;;;18.00;12.23;;;8.90;99.90;;;;;;4976136;28;20054;-70
2023/05/08 03:35:20;;;;;;;18.35;12.48;;;8.90;99.90;;;;;;4976016;28;20034;-70
2023/05/08 03:37:46;;;;;;;18.20;12.73;;;8.80;99.90;;;;;;4976811;28;20034;-69
2023/05/08 03:40:12;;;;;;;17.50;12.57;;;8.90;99.90;;;;;;4976073;28;20090;-71
2023/05/08 03:42:39;;;;;;;18.00;12.52;;;8.90;99.90;;;;;;4976235;28;20054;-70
2023/05/08 03:45:06;;;;;;;20.05;12.48;;;8.90;99.90;;;;;;4993347;28;20081;-71
2023/05/08 03:47:34;;;;;;;18.23;12.63;;;8.90;99.90;;;;;;4993813;28;20050;-70
2023/05/08 03:50:00;;;;;;;23.77;13.57;;;8.90;99.90;;;;;;4993604;28;20038;-70
2023/05/08 03:52:25;;;;;;;20.92;12.45;;;8.90;99.90;;;;;;4993892;28;20082;-69
2023/05/08 03:54:51;;;;;;;18.38;12.82;;;9.00;99.90;;;;;;4993758;28;20034;-69
2023/05/08 03:57:17;;;;;;;18.38;12.93;;;8.80;99.90;;;;;;4976308;28;20058;-70
2023/05/08 03:59:52;;;;;;;18.92;13.13;;;8.80;99.90;;;;;;4993412;28;20026;-70
2023/05/08 04:02:35;;;;;;;20.58;13.52;;;8.80;99.90;;;;;;4990891;28;20125;-70
2023/05/08 04:05:24;;;;;;;18.08;12.63;;;8.80;99.90;;;;;;4975892;28;20038;-70
2023/05/08 04:07:56;;;;;;;19.02;12.95;;;8.70;99.90;;;;;;4991015;28;20026;-70
2023/05/08 04:10:29;;;;;;;18.27;12.80;;;8.80;99.90;;;;;;4993434;28;20022;-72
2023/05/08 04:13:14;;;;;;;18.77;13.05;;;8.80;99.90;;;;;;4976078;28;20039;-71
2023/05/08 04:15:52;;;;;;;17.60;11.85;;;8.80;99.90;;;;;;4992618;28;20050;-70
2023/05/08 04:18:24;;;;;;;20.00;12.80;;;8.70;99.90;;;;;;4992893;28;20041;-70
2023/05/08 04:20:53;;;;;;;17.13;12.48;;;8.70;99.90;;;;;;4993085;28;20491;-70
2023/05/08 04:23:21;;;;;;;17.75;12.05;;;8.80;99.90;;;;;;4993025;28;20077;-71
2023/05/08 04:25:50;;;;;;;16.95;12.18;;;8.70;99.90;;;;;;4974754;28;20078;-71
2023/05/08 04:28:16;;;;;;;19.75;13.05;;;8.70;99.90;;;;;;4992140;28;20037;-69
2023/05/08 04:30:42;;;;;;;17.75;12.43;;;8.80;99.90;;;;;;4992453;28;20078;-68
2023/05/08 04:33:08;;;;;;;20.13;12.63;;;8.70;99.90;;;;;;4992492;28;20022;-70
2023/05/08 04:35:34;;;;;;;16.75;12.02;;;8.70;99.90;;;;;;4991318;28;20022;-69
2023/05/08 04:38:01;;;;;;;16.00;11.73;;;8.70;99.90;;;;;;4973628;28;20094;-72
2023/05/08 04:40:27;;;;;;;19.23;12.30;;;8.80;99.90;;;;;;4990041;28;20037;-71
2023/05/08 04:42:52;;;;;;;17.95;12.30;;;8.80;99.90;;;;;;4989523;28;20042;-69
2023/05/08 04:45:18;;;;;;;17.65;11.93;;;8.80;99.90;;;;;;4988333;28;20035;-69
2023/05/08 04:47:44;;;;;;;18.83;12.52;;;8.80;99.90;;;;;;4973548;28;20058;-69
2023/05/08 04:50:10;;;;;;;18.70;12.20;;;8.90;99.90;;;;;;4989962;28;20120;-68
2023/05/08 04:52:35;;;;;;;16.85;11.48;;;8.90;99.90;;;;;;4991525;28;20067;-70
2023/05/08 04:55:01;;;;;;;18.30;11.52;;;8.90;99.90;;;;;;4974759;28;20022;-71
2023/05/08 04:57:27;;;;;;;17.55;11.52;;;8.90;99.90;;;;;;4990564;28;20046;-71
2023/05/08 04:59:52;;;;;;;17.67;11.82;;;8.90;99.90;;;;;;4988559;28;20422;-68
2023/05/08 05:02:18;;;;;;;19.27;12.98;;;8.90;99.90;;;;;;4991652;28;20030;-68
2023/05/08 05:04:43;;;;;;;16.92;12.20;;;8.90;99.90;;;;;;4974921;28;20145;-66
2023/05/08 05:07:09;;;;;;;17.38;12.35;;;9.00;99.90;;;;;;4990059;28;20041;-69
2023/05/08 05:09:35;;;;;;;15.88;11.10;;;9.00;99.90;;;;;;4992333;28;20129;-71
2023/05/08 05:12:05;;;;;;;15.95;11.63;;;9.00;99.90;;;;;;4992243;28;20066;-70
2023/05/08 05:14:30;;;;;;;19.25;13.18;;;9.10;99.90;;;;;;4989620;28;20034;-70
2023/05/08 05:16:56;;;;;;;16.83;11.38;;;9.10;99.90;;;;;;4991934;28;20038;-69
2023/05/08 05:19:21;;;;;;;16.10;11.63;;;9.20;99.90;;;;;;4986660;28;20077;-67
2023/05/08 05:21:47;;;;;;;17.17;11.43;;;9.20;99.90;;;;;;4991392;28;20022;-69
2023/05/08 05:24:12;;;;;;;15.95;12.20;;;9.20;99.90;;;;;;4991252;28;20042;-69
2023/05/08 05:26:38;;;;;;;16.48;11.13;;;9.30;99.90;;;;;;4991124;28;20029;-70
2023/05/08 05:29:04;;;;;;;17.70;11.38;;;9.30;99.90;;;;;;4991276;28;20027;-68
2023/05/08 05:31:29;;;;;;;15.45;11.38;;;9.30;99.90;;;;;;4974278;28;20038;-69
2023/05/08 05:33:55;;;;;;;17.17;12.20;;;9.30;99.90;;;;;;4971314;28;20038;-69
2023/05/08 05:36:21;;;;;;;18.17;11.98;;;9.40;99.90;;;;;;4992019;28;20093;-67
2023/05/08 05:38:46;;;;;;;16.88;11.43;;;9.40;99.90;;;;;;4990565;28;20097;-69
2023/05/08 05:41:12;;;;;;;17.13;11.70;;;9.40;99.90;;;;;;4990367;28;20041;-70
2023/05/08 05:43:37;;;;;;;20.60;11.82;;;9.50;99.90;;;;;;4991368;28;20027;-69
2023/05/08 05:46:04;;;;;;;16.63;12.05;;;9.50;99.90;;;;;;4991148;28;20027;-69
2023/05/08 05:48:30;;;;;;;16.90;11.82;;;9.40;99.90;;;;;;4990731;28;20042;-67
2023/05/08 05:50:56;;;;;;;17.35;12.23;;;9.60;99.90;;;;;;4991283;28;20555;-68
2023/05/08 05:53:22;;;;;;;16.17;11.80;;;9.60;99.90;;;;;;4990372;28;20435;-69
2023/05/08 05:55:48;;;;;;;15.77;11.13;;;9.70;99.90;;;;;;4991181;28;20027;-69
2023/05/08 05:58:14;;;;;;;15.45;11.43;;;9.80;99.90;;;;;;4992031;28;20027;-70
2023/05/08 06:00:40;;;;;;;16.20;11.43;;;9.90;99.90;;;;;;4974114;28;20126;-71
2023/05/08 06:03:05;;;;;;;18.48;11.18;;;10.00;99.90;;;;;;4972717;28;20077;-68
2023/05/08 06:05:31;;;;;;;15.60;10.48;;;10.00;99.90;;;;;;4990816;28;20843;-68
2023/05/08 06:07:57;;;;;;;18.33;11.55;;;10.10;99.90;;;;;;4990325;28;20023;-66
2023/05/08 06:10:22;;;;;;;15.68;11.10;;;10.20;99.90;;;;;;4991046;28;20055;-69
2023/05/08 06:12:48;;;;;;;16.30;10.77;;;10.20;99.90;;;;;;4991500;28;20046;-69
2023/05/08 06:15:13;;;;;;;16.60;11.05;;;10.20;99.90;;;;;;4991395;28;20049;-69
2023/05/08 06:17:40;;;;;;;15.27;11.30;;;10.20;99.90;;;;;;4992397;28;20077;-70
2023/05/08 06:20:07;;;;;;;18.52;10.70;;;10.30;99.90;;;;;;4991102;28;20042;-69
2023/05/08 06:22:32;;;;;;;15.00;10.43;;;10.40;99.90;;;;;;4972105;28;20030;-68
2023/05/08 06:24:58;;;;;;;17.33;11.40;;;10.30;99.90;;;;;;4988874;28;20101;-69
2023/05/08 06:27:24;;;;;;;18.10;12.10;;;10.30;99.90;;;;;;4973699;28;20031;-69
2023/05/08 06:29:51;;;;;;;15.55;10.63;;;10.30;99.90;;;;;;4990585;28;20440;-69
2023/05/08 06:32:20;;;;;;;14.43;11.27;;;10.40;99.90;;;;;;4989283;28;20033;-69
2023/05/08 06:34:46;;;;;;;20.25;11.25;;;10.40;99.90;;;;;;4993603;28;20030;-70
2023/05/08 06:37:12;;;;;;;17.80;11.00;;;10.40;99.90;;;;;;4995449;28;20019;-72
2023/05/08 06:39:38;;;;;;;17.65;11.05;;;10.50;99.90;;;;;;4978086;28;20099;-69
2023/05/08 06:42:05;;;;;;;16.23;10.73;;;10.60;99.90;;;;;;4995391;28;20037;-70
2023/05/08 06:44:31;;;;;;;16.30;11.55;;;10.60;99.90;;;;;;4994002;28;20038;-70
2023/05/08 06:46:57;;;;;;;18.40;11.25;;;10.60;99.90;;;;;;4995457;28;20033;-69
2023/05/08 06:49:22;;;;;;;15.95;11.20;;;10.70;99.90;;;;;;4994797;28;20027;-69
2023/05/08 06:51:48;;;;;;;22.73;10.95;;;10.70;99.90;;;;;;4994584;28;20031;-68
2023/05/08 06:54:13;;;;;;;15.93;11.10;;;10.80;99.90;;;;;;4995167;28;20050;-69
2023/05/08 06:56:39;;;;;;;15.10;10.88;;;10.90;99.90;;;;;;4994918;28;20811;-70
2023/05/08 06:59:05;;;;;;;14.80;11.30;;;11.00;99.90;;;;;;4995456;28;20481;-70
2023/05/08 07:01:30;;;;;;;16.17;10.93;;;11.00;99.90;;;;;;4993792;28;20034;-69
2023/05/08 07:03:56;;;;;;;14.55;10.23;;;11.20;99.90;;;;;;4993904;28;20114;-69
2023/05/08 07:06:21;;;;;;;13.82;10.55;;;11.20;99.90;;;;;;4992916;28;20031;-70
2023/05/08 07:08:47;;;;;;;18.33;10.45;;;11.20;99.90;;;;;;4991826;28;20031;-68
2023/05/08 07:11:12;;;;;;;15.43;10.73;;;11.20;99.90;;;;;;4991289;28;20039;-69
2023/05/08 07:13:38;;;;;;;13.10;10.25;;;11.30;99.90;;;;;;4991967;28;20053;-70
2023/05/08 07:16:10;;;;;;;15.93;10.95;;;11.30;99.90;;;;;;4989678;28;20745;-70
2023/05/08 07:18:36;;;;;;;14.57;10.95;;;11.30;99.90;;;;;;4994287;28;20023;-69
2023/05/08 07:21:02;;;;;;;14.48;11.02;;;11.50;99.90;;;;;;4991417;28;20061;-71
2023/05/08 07:23:27;;;;;;;13.93;10.60;;;11.60;99.90;;;;;;4993783;28;20109;-69
2023/05/08 07:25:53;;;;;;;13.57;10.05;;;11.70;99.90;;;;;;4994771;28;20058;-68
2023/05/08 07:28:19;;;;;;;14.10;10.20;;;11.80;99.90;;;;;;4975052;28;20098;-71
2023/05/08 07:30:45;;;;;;;14.13;10.70;;;11.80;99.90;;;;;;4994570;28;20033;-70
2023/05/08 07:33:11;;;;;;;13.77;9.18;;;12.00;99.90;;;;;;4993551;28;20027;-69
2023/05/08 07:35:38;;;;;;;13.70;10.13;;;12.00;99.90;;;;;;4993247;28;20027;-69
2023/05/08 07:38:04;;;;;;;15.38;10.77;;;12.10;99.90;;;;;;4993465;28;20026;-72
2023/05/08 07:40:29;;;;;;;12.88;9.98;;;12.10;99.90;;;;;;4977089;28;20033;-69
2023/05/08 07:42:55;;;;;;;17.92;10.85;;;12.10;99.90;;;;;;4992777;28;20102;-70
2023/05/08 07:45:21;;;;;;;15.60;10.85;;;12.20;99.90;;;;;;4992101;28;20759;-71
2023/05/08 07:47:52;;;;;;;15.93;10.20;;;12.10;99.90;;;;;;4992484;28;20030;-72
2023/05/08 07:50:17;;;;;;;15.10;11.32;;;12.10;99.90;;;;;;4976296;28;20035;-70
2023/05/08 07:52:44;;;;;;;16.48;11.13;;;12.10;99.90;;;;;;4992778;28;20031;-69
2023/05/08 07:55:09;;;;;;;14.48;10.85;;;12.10;99.90;;;;;;4994320;28;20037;-68
2023/05/08 07:57:39;;;;;;;14.65;10.40;;;12.30;99.90;;;;;;4992554;28;20038;-67
2023/05/08 08:00:06;;;;;;;17.95;10.93;;;12.30;99.90;;;;;;4993928;28;20059;-67
2023/05/08 08:02:32;;;;;;;13.50;10.95;;;12.50;99.90;;;;;;4972212;28;20043;-66
2023/05/08 08:04:58;;;;;;;14.02;11.15;;;12.70;99.90;;;;;;4993022;28;20039;-68
2023/05/08 08:07:23;;;;;;;17.70;10.52;;;12.80;99.90;;;;;;4993419;28;20050;-70
2023/05/08 08:09:49;;;;;;;16.35;10.85;;;13.00;99.90;;;;;;4993117;28;20090;-66
2023/05/08 08:12:14;;;;;;;17.05;10.98;;;13.20;99.90;;;;;;4989901;28;20415;-69
2023/05/08 08:14:40;;;;;;;15.27;10.43;;;13.20;99.90;;;;;;4989041;28;20039;-71
2023/05/08 08:17:05;;;;;;;16.98;10.90;;;13.30;99.90;;;;;;4973573;28;20046;-68
2023/05/08 08:19:31;;;;;;;15.85;11.70;;;13.30;99.90;;;;;;4991563;28;20026;-69
2023/05/08 08:21:57;;;;;;;16.50;10.77;;;13.40;99.90;;;;;;4974586;28;20030;-70
2023/05/08 08:24:22;;;;;;;18.80;10.88;;;13.50;99.90;;;;;;4975688;28;20038;-69
2023/05/08 08:26:48;;;;;;;16.42;11.05;;;13.60;99.90;;;;;;4990390;28;20519;-69
2023/05/08 08:29:14;;;;;;;17.70;11.32;;;13.70;99.90;;;;;;4987360;28;20019;-68
2023/05/08 08:31:40;;;;;;;12.90;10.23;;;13.90;99.90;;;;;;4987927;28;20035;-71
2023/05/08 08:34:06;;;;;;;17.20;11.13;;;13.80;99.90;;;;;;4988189;28;20031;-67
2023/05/08 08:36:32;;;;;;;13.73;10.90;;;13.70;99.90;;;;;;4992522;28;20038;-70
2023/05/08 08:38:58;;;;;;;14.65;10.50;;;13.50;99.90;;;;;;4972273;28;20026;-69
2023/05/08 08:41:23;;;;;;;18.50;11.27;;;13.50;99.90;;;;;;4992970;28;20927;-70
2023/05/08 08:43:49;;;;;;;15.07;11.10;;;13.70;99.90;;;;;;4988900;28;20065;-69
2023/05/08 08:46:18;;;;;;;15.50;11.15;;;13.70;99.90;;;;;;4988671;28;20098;-69
2023/05/08 08:48:46;;;;;;;15.57;10.85;;;13.70;99.90;;;;;;4993331;28;20034;-69
2023/05/08 08:51:24;;;;;;;13.45;10.90;;;13.70;99.90;;;;;;4974776;28;20022;-69
2023/05/08 08:53:59;;;;;;;14.95;11.25;;;13.70;99.90;;;;;;4971262;28;20104;-69
2023/05/08 08:56:26;;;;;;;16.25;11.48;;;13.80;99.90;;;;;;4990857;28;20039;-68
2023/05/08 08:58:58;;;;;;;13.70;10.80;;;13.80;99.90;;;;;;4992632;28;20023;-71
2023/05/08 09:01:24;;;;;;;17.38;11.55;;;14.00;99.90;;;;;;4975950;28;20070;-68
2023/05/08 09:03:50;;;;;;;15.30;10.88;;;14.00;99.90;;;;;;4992603;28;20042;-69
2023/05/08 09:06:16;;;;;;;15.05;11.10;;;14.10;99.90;;;;;;4992724;28;20046;-71
2023/05/08 09:08:42;;;;;;;14.07;11.25;;;14.20;99.90;;;;;;4992868;28;20057;-69
2023/05/08 09:11:08;;;;;;;14.70;11.38;;;14.40;99.90;;;;;;4992006;28;20416;-68
2023/05/08 09:13:33;;;;;;;15.23;11.00;;;14.50;99.90;;;;;;4992845;28;20051;-70
2023/05/08 09:15:59;;;;;;;14.43;11.63;;;14.80;99.90;;;;;;4992378;28;20574;-69
2023/05/08 09:18:25;;;;;;;14.27;11.38;;;15.00;99.90;;;;;;4991842;28;20036;-69
2023/05/08 09:20:51;;;;;;;16.35;11.77;;;15.20;99.90;;;;;;4993336;28;20023;-70
2023/05/08 09:23:17;;;;;;;15.38;12.35;;;15.50;99.90;;;;;;4992492;28;20030;-69
2023/05/08 09:25:44;;;;;;;17.65;11.55;;;15.70;99.90;;;;;;4992929;28;20410;-69
2023/05/08 09:28:18;;;;;;;16.75;11.57;;;15.80;99.90;;;;;;4975612;28;20027;-69
2023/05/08 09:30:56;;;;;;;17.38;11.70;;;15.90;99.90;;;;;;4992363;28;20049;-70
2023/05/08 09:33:26;;;;;;;17.48;12.43;;;16.10;99.90;;;;;;4992515;28;20031;-69
2023/05/08 09:35:54;;;;;;;16.23;12.07;;;16.20;99.90;;;;;;4987087;28;20094;-70
2023/05/08 09:38:32;;;;;;;16.30;12.18;;;16.30;99.90;;;;;;4972202;28;20050;-68
2023/05/08 09:41:15;;;;;;;14.13;11.55;;;16.50;99.90;;;;;;4971684;28;20041;-70
2023/05/08 09:43:43;;;;;;;14.27;11.93;;;16.60;99.90;;;;;;4990772;28;20097;-69
2023/05/08 09:46:22;;;;;;;19.30;11.32;;;16.60;99.90;;;;;;4992111;28;20031;-69
2023/05/08 09:48:58;;;;;;;15.82;11.80;;;16.80;99.90;;;;;;4972675;28;20035;-70
2023/05/08 09:51:25;;;;;;;14.18;12.00;;;16.70;99.90;;;;;;4991928;28;20030;-68
2023/05/08 09:53:56;;;;;;;15.23;11.60;;;16.90;99.90;;;;;;4992027;28;20015;-71
2023/05/08 09:56:38;;;;;;;15.30;12.30;;;16.80;99.90;;;;;;4972908;28;20031;-68
2023/05/08 09:59:20;;;;;;;15.18;10.90;;;16.90;99.90;;;;;;4974077;28;20030;-67
2023/05/08 10:01:47;;;;;;;22.20;13.10;;;17.00;99.90;;;;;;4992825;28;20029;-68
2023/05/08 10:04:13;;;;;;;16.10;12.05;;;17.00;99.90;;;;;;4989757;28;20054;-68
2023/05/08 10:06:39;;;;;;;14.90;11.82;;;17.00;99.90;;;;;;4990781;28;20034;-69
2023/05/08 10:09:17;;;;;;;13.45;10.50;;;17.00;99.90;;;;;;4996054;28;20045;-66
2023/05/08 10:11:51;;;;;;;14.95;11.95;;;17.00;99.90;;;;;;4976057;28;20026;-68
2023/05/08 10:14:17;;;;;;;14.60;11.07;;;17.10;99.90;;;;;;4978310;28;20137;-71
2023/05/08 10:16:44;;;;;;;19.25;12.35;;;17.10;99.90;;;;;;4996431;28;20034;-70
2023/05/08 10:19:15;;;;;;;14.57;11.35;;;17.10;99.90;;;;;;4996287;28;20031;-72
2023/05/08 10:21:45;;;;;;;15.90;11.27;;;17.20;99.90;;;;;;4978182;28;20038;-72
2023/05/08 10:24:32;;;;;;;15.48;11.70;;;17.30;99.90;;;;;;4978395;28;20102;-71
2023/05/08 10:27:16;;;;;;;16.08;10.93;;;17.40;99.90;;;;;;4995825;28;20039;-74
2023/05/08 10:29:51;;;;;;;12.95;10.70;;;17.40;99.90;;;;;;4993005;28;20102;-69
2023/05/08 10:32:19;;;;;;;13.52;10.98;;;17.40;99.90;;;;;;4995132;28;20138;-69
2023/05/08 10:34:55;;;;;;;17.88;11.30;;;17.40;99.90;;;;;;4994503;28;20022;-69
2023/05/08 10:37:21;;;;;;;15.68;10.93;;;17.50;99.90;;;;;;4995220;28;20027;-69
2023/05/08 10:39:48;;;;;;;13.63;10.05;;;17.70;99.90;;;;;;4995590;28;20045;-69
2023/05/08 10:42:14;;;;;;;14.73;11.25;;;17.80;99.90;;;;;;4996125;28;20030;-73
2023/05/08 10:44:40;;;;;;;16.13;11.40;;;17.90;99.90;;;;;;4977830;28;20045;-69
2023/05/08 10:47:23;;;;;;;12.90;11.18;;;18.00;99.90;;;;;;4995250;28;20499;-70
2023/05/08 10:50:04;;;;;;;16.30;11.50;;;18.00;99.90;;;;;;4995417;28;20027;-68
2023/05/08 10:52:49;;;;;;;14.70;9.77;;;18.20;99.90;;;;;;4995779;28;20694;-69
2023/05/08 10:55:32;;;;;;;14.13;10.77;;;18.30;99.90;;;;;;4988785;28;20022;-72
2023/05/08 10:58:08;;;;;;;13.10;10.98;;;18.50;99.90;;;;;;4993831;28;20034;-69
2023/05/08 11:00:52;;;;;;;15.05;10.18;;;18.50;99.90;;;;;;4990896;28;20030;-72
2023/05/08 11:03:18;;;;;;;16.92;10.02;;;18.50;99.90;;;;;;4994523;28;20053;-71
2023/05/08 11:05:48;;;;;;;13.40;9.90;;;18.50;99.90;;;;;;4994299;28;20119;-69
2023/05/08 11:08:26;;;;;;;12.65;10.30;;;18.50;99.90;;;;;;4993883;28;20053;-71
2023/05/08 11:11:05;;;;;;;15.55;10.68;;;18.50;99.90;;;;;;4993869;28;20443;-68
2023/05/08 11:13:39;;;;;;;15.45;10.10;;;18.50;99.90;;;;;;4989653;28;20038;-70
2023/05/08 11:16:06;;;;;;;12.05;9.85;;;18.50;99.90;;;;;;4993225;28;20455;-71
2023/05/08 11:18:32;;;;;;;14.40;10.93;;;18.70;99.90;;;;;;4976019;28;20026;-71
2023/05/08 11:21:02;;;;;;;13.43;10.40;;;18.80;99.90;;;;;;4972448;28;20037;-72
2023/05/08 11:23:37;;;;;;;14.85;9.93;;;18.90;99.90;;;;;;4992910;28;20038;-73
2023/05/08 11:26:14;;;;;;;12.95;10.23;;;19.00;99.90;;;;;;4993914;28;20172;-70
2023/05/08 11:29:00;;;;;;;14.43;10.50;;;19.00;99.90;;;;;;4974202;28;20132;-71
2023/05/08 11:31:49;;;;;;;16.38;10.98;;;19.10;99.90;;;;;;4974703;28;20039;-72
2023/05/08 11:34:54;;;;;;;14.20;10.38;;;19.10;99.90;;;;;;4975991;28;20091;-74
2023/05/08 11:37:22;;;;;;;14.30;10.10;;;19.20;99.90;;;;;;4933171;29;20035;-71
2023/05/08 11:39:48;;;;;;;14.85;10.25;;;19.30;99.90;;;;;;4917461;29;20359;-71
2023/05/08 11:42:26;;;;;;;17.77;12.25;;;19.40;99.90;;;;;;4962348;28;20102;-71
2023/05/08 11:45:07;;;;;;;13.57;11.10;;;19.40;99.90;;;;;;4992587;28;20039;-71
2023/05/08 11:47:43;;;;;;;14.48;10.98;;;19.40;99.90;;;;;;4992995;28;21358;-69
2023/05/08 11:50:10;;;;;;;16.33;11.90;;;19.60;99.90;;;;;;4994128;28;20061;-70
2023/05/08 11:52:38;;;;;;;13.43;11.35;;;19.70;99.90;;;;;;4993858;28;20030;-70
2023/05/08 11:55:06;;;;;;;12.85;10.95;;;19.80;99.90;;;;;;4976569;28;20047;-69
2023/05/08 11:57:34;;;;;;;14.00;10.60;;;19.80;99.90;;;;;;4975947;28;20094;-70
2023/05/08 12:00:10;;;;;;;13.45;10.27;;;19.90;99.90;;;;;;4976486;28;20065;-70
2023/05/08 12:02:40;;;;;;;13.35;9.50;;;19.90;99.90;;;;;;4992213;28;20041;-70
2023/05/08 12:05:07;;;;;;;15.35;10.18;;;19.90;99.90;;;;;;4975719;28;20039;-70
2023/05/08 12:07:41;;;;;;;11.50;9.80;;;20.00;99.90;;;;;;4975463;28;20542;-68
2023/05/08 12:10:07;;;;;;;14.98;10.23;;;20.10;99.90;;;;;;4976198;28;20038;-74
2023/05/08 12:12:36;;;;;;;14.07;11.73;;;20.10;99.90;;;;;;4993909;28;20065;-71
2023/05/08 12:15:09;;;;;;;14.27;10.43;;;20.10;99.90;;;;;;4993827;28;20018;-70
2023/05/08 12:17:34;;;;;;;15.25;10.63;;;20.20;99.90;;;;;;4993689;28;20035;-72
2023/05/08 12:20:13;;;;;;;13.13;10.93;;;20.20;99.90;;;;;;4994012;28;20038;-70
2023/05/08 12:22:39;;;;;;;14.02;10.75;;;20.30;99.90;;;;;;4976957;28;20026;-72
2023/05/08 12:25:06;;;;;;;12.23;10.13;;;20.40;99.90;;;;;;4976248;28;20050;-70
2023/05/08 12:27:32;;;;;;;17.58;9.75;;;20.40;99.90;;;;;;4993761;28;20082;-69
2023/05/08 12:29:58;;;;;;;12.85;9.30;;;20.50;99.90;;;;;;4993403;28;20416;-70
2023/05/08 12:32:24;;;;;;;10.60;8.65;;;20.60;99.90;;;;;;4991746;28;20034;-71
2023/05/08 12:34:51;;;;;;;10.90;9.20;;;20.70;99.90;;;;;;4993225;28;20498;-71
2023/05/08 12:37:26;;;;;;;11.85;9.80;;;20.80;99.90;;;;;;4975483;28;20029;-69
2023/05/08 12:39:51;;;;;;;14.05;9.32;;;20.90;99.90;;;;;;4992191;28;20038;-74
2023/05/08 12:42:17;;;;;;;10.63;9.45;;;21.00;99.90;;;;;;4975956;28;20030;-70
2023/05/08 12:44:50;;;;;;;10.73;8.90;;;21.10;99.90;;;;;;4976014;28;20072;-69